sensor_id;sensor_type;location;lat;lon;timestamp;pressure;altitude;pressure_sealevel;temperature;humidity
19005;BME280;9635;52.078;8.648;2023-03-12T00:04:39;100122.78;;;0.55;55.79
19005;BME280;9635;52.078;8.648;2023-03-12T00:09:42;100117.81;;;0.48;56.48
19005;BME280;9635;52.078;8.648;2023-03-12T00:14:47;100129.66;;;0.39;56.71
19005;BME280;9635;52.078;8.648;2023-03-12T00:19:50;100123.84;;;0.31;56.90
19005;BME280;9635;52.078;8.648;2023-03-12T00:24:55;100122.06;;;0.31;56.78
19005;BME280;9635;52.078;8.648;2023-03-12T00:29:59;100116.59;;;0.36;56.88
19005;BME280;9635;52.078;8.648;2023-03-12T00:35:04;100121.97;;;0.33;57.55
19005;BME280;9635;52.078;8.648;2023-03-12T00:40:08;100110.69;;;0.29;58.01
19005;BME280;9635;52.078;8.648;2023-03-12T00:45:13;100106.66;;;0.21;58.38
19005;BME280;9635;52.078;8.648;2023-03-12T00:50:16;100105.84;;;0.19;58.61
19005;BME280;9635;52.078;8.648;2023-03-12T00:55:19;100099.97;;;0.12;59.27
19005;BME280;9635;52.078;8.648;2023-03-12T01:00:23;100103.09;;;-0.21;61.42
19005;BME280;9635;52.078;8.648;2023-03-12T01:05:27;100097.41;;;-0.54;63.01
19005;BME280;9635;52.078;8.648;2023-03-12T01:10:30;100095.53;;;-0.74;64.44
19005;BME280;9635;52.078;8.648;2023-03-12T01:15:34;100094.81;;;-0.78;65.25
19005;BME280;9635;52.078;8.648;2023-03-12T01:20:37;100088.41;;;-0.72;65.63
19005;BME280;9635;52.078;8.648;2023-03-12T01:25:41;100090.94;;;-0.69;65.64
19005;BME280;9635;52.078;8.648;2023-03-12T01:30:46;100081.19;;;-0.67;65.79
19005;BME280;9635;52.078;8.648;2023-03-12T01:35:49;100072.56;;;-0.70;65.30
19005;BME280;9635;52.078;8.648;2023-03-12T01:40:52;100075.31;;;-0.74;65.44
19005;BME280;9635;52.078;8.648;2023-03-12T01:46:18;100078.44;;;-0.64;64.50
19005;BME280;9635;52.078;8.648;2023-03-12T01:51:24;100073.78;;;-0.57;64.42
19005;BME280;9635;52.078;8.648;2023-03-12T01:56:31;100062.31;;;-0.56;64.34
19005;BME280;9635;52.078;8.648;2023-03-12T02:01:36;100066.03;;;-0.62;64.30
19005;BME280;9635;52.078;8.648;2023-03-12T02:06:44;100061.44;;;-0.57;64.38
19005;BME280;9635;52.078;8.648;2023-03-12T02:11:50;100055.44;;;-0.60;64.43
19005;BME280;9635;52.078;8.648;2023-03-12T02:16:55;100051.19;;;-0.64;64.69
19005;BME280;9635;52.078;8.648;2023-03-12T02:21:58;100047.88;;;-0.69;64.50
19005;BME280;9635;52.078;8.648;2023-03-12T02:27:03;100052.25;;;-0.68;64.61
19005;BME280;9635;52.078;8.648;2023-03-12T02:32:08;100052.19;;;-0.67;64.82
19005;BME280;9635;52.078;8.648;2023-03-12T02:37:18;100041.31;;;-0.59;64.70
19005;BME280;9635;52.078;8.648;2023-03-12T02:42:23;100045.00;;;-0.63;64.70
19005;BME280;9635;52.078;8.648;2023-03-12T02:47:26;100037.41;;;-0.71;64.53
19005;BME280;9635;52.078;8.648;2023-03-12T02:52:29;100037.50;;;-0.74;64.73
19005;BME280;9635;52.078;8.648;2023-03-12T02:57:37;100037.63;;;-0.77;64.56
19005;BME280;9635;52.078;8.648;2023-03-12T03:02:44;100041.19;;;-0.78;64.70
19005;BME280;9635;52.078;8.648;2023-03-12T03:07:48;100035.13;;;-0.80;64.89
19005;BME280;9635;52.078;8.648;2023-03-12T03:12:52;100039.63;;;-0.82;64.70
19005;BME280;9635;52.078;8.648;2023-03-12T03:17:55;100030.91;;;-0.84;65.00
19005;BME280;9635;52.078;8.648;2023-03-12T03:22:59;100022.97;;;-0.84;64.99
19005;BME280;9635;52.078;8.648;2023-03-12T03:28:03;100020.34;;;-0.84;65.57
19005;BME280;9635;52.078;8.648;2023-03-12T03:33:06;100020.78;;;-0.95;65.68
19005;BME280;9635;52.078;8.648;2023-03-12T03:38:09;100022.13;;;-0.85;65.54
19005;BME280;9635;52.078;8.648;2023-03-12T03:43:13;100014.00;;;-0.80;65.79
19005;BME280;9635;52.078;8.648;2023-03-12T03:48:17;100013.13;;;-0.79;65.52
19005;BME280;9635;52.078;8.648;2023-03-12T03:53:20;100009.41;;;-0.75;65.48
19005;BME280;9635;52.078;8.648;2023-03-12T03:58:24;100001.81;;;-0.83;65.46
19005;BME280;9635;52.078;8.648;2023-03-12T04:03:28;100005.50;;;-0.87;65.47
19005;BME280;9635;52.078;8.648;2023-03-12T04:08:31;100000.91;;;-0.82;65.85
19005;BME280;9635;52.078;8.648;2023-03-12T04:13:38;100000.09;;;-0.84;65.48
19005;BME280;9635;52.078;8.648;2023-03-12T04:18:42;99996.78;;;-0.89;65.78
19005;BME280;9635;52.078;8.648;2023-03-12T04:23:45;99988.06;;;-0.91;66.12
19005;BME280;9635;52.078;8.648;2023-03-12T04:28:50;99978.19;;;-0.86;66.05
19005;BME280;9635;52.078;8.648;2023-03-12T04:33:53;99967.78;;;-0.89;66.11
19005;BME280;9635;52.078;8.648;2023-03-12T04:38:58;99967.06;;;-0.92;66.19
19005;BME280;9635;52.078;8.648;2023-03-12T04:44:06;99966.38;;;-0.98;66.12
19005;BME280;9635;52.078;8.648;2023-03-12T04:49:13;99961.28;;;-1.02;66.50
19005;BME280;9635;52.078;8.648;2023-03-12T04:54:17;99953.91;;;-0.94;66.62
19005;BME280;9635;52.078;8.648;2023-03-12T04:59:23;99960.66;;;-0.87;66.17
19005;BME280;9635;52.078;8.648;2023-03-12T05:04:27;99941.81;;;-0.78;66.20
19005;BME280;9635;52.078;8.648;2023-03-12T05:09:33;99943.16;;;-0.67;65.63
19005;BME280;9635;52.078;8.648;2023-03-12T05:14:38;99946.59;;;-0.65;64.69
19005;BME280;9635;52.078;8.648;2023-03-12T05:19:42;99946.47;;;-0.62;64.78
19005;BME280;9635;52.078;8.648;2023-03-12T05:24:45;99933.56;;;-0.48;64.72
19005;BME280;9635;52.078;8.648;2023-03-12T05:29:49;99923.06;;;-0.50;64.69
19005;BME280;9635;52.078;8.648;2023-03-12T05:34:54;99922.06;;;-0.47;65.07
19005;BME280;9635;52.078;8.648;2023-03-12T05:39:57;99908.09;;;-0.49;64.63
19005;BME280;9635;52.078;8.648;2023-03-12T05:45:03;99906.38;;;-0.50;65.39
19005;BME280;9635;52.078;8.648;2023-03-12T05:50:09;99910.88;;;-0.52;65.26
19005;BME280;9635;52.078;8.648;2023-03-12T05:55:12;99896.47;;;-0.45;65.52
19005;BME280;9635;52.078;8.648;2023-03-12T06:00:18;99875.22;;;-0.42;65.52
19005;BME280;9635;52.078;8.648;2023-03-12T06:05:29;99871.06;;;-0.47;65.51
19005;BME280;9635;52.078;8.648;2023-03-12T06:10:32;99876.44;;;-0.49;65.36
19005;BME280;9635;52.078;8.648;2023-03-12T06:15:37;99873.84;;;-0.30;65.27
19005;BME280;9635;52.078;8.648;2023-03-12T06:20:41;99861.56;;;-0.31;65.11
19005;BME280;9635;52.078;8.648;2023-03-12T06:25:44;99860.44;;;-0.25;65.29
19005;BME280;9635;52.078;8.648;2023-03-12T06:30:51;99850.53;;;-0.20;64.82
19005;BME280;9635;52.078;8.648;2023-03-12T06:35:55;99845.63;;;-0.09;64.61
19005;BME280;9635;52.078;8.648;2023-03-12T06:40:59;99845.31;;;-0.03;64.69
19005;BME280;9635;52.078;8.648;2023-03-12T06:46:05;99832.91;;;-0.01;64.72
19005;BME280;9635;52.078;8.648;2023-03-12T06:51:09;99833.47;;;0.44;66.19
19005;BME280;9635;52.078;8.648;2023-03-12T06:56:13;99831.78;;;0.96;64.07
19005;BME280;9635;52.078;8.648;2023-03-12T07:01:17;99824.00;;;1.11;62.50
19005;BME280;9635;52.078;8.648;2023-03-12T07:06:21;99826.38;;;1.67;62.25
19005;BME280;9635;52.078;8.648;2023-03-12T07:11:24;99840.63;;;1.65;59.92
19005;BME280;9635;52.078;8.648;2023-03-12T07:16:28;99834.72;;;1.60;60.31
19005;BME280;9635;52.078;8.648;2023-03-12T07:21:32;99827.09;;;1.36;61.12
19005;BME280;9635;52.078;8.648;2023-03-12T07:26:34;99820.44;;;1.29;61.41
19005;BME280;9635;52.078;8.648;2023-03-12T07:31:39;99827.66;;;1.08;62.06
19005;BME280;9635;52.078;8.648;2023-03-12T07:36:42;99822.19;;;1.28;62.04
19005;BME280;9635;52.078;8.648;2023-03-12T07:41:44;99811.25;;;1.19;61.36
19005;BME280;9635;52.078;8.648;2023-03-12T07:46:49;99811.78;;;1.25;62.13
19005;BME280;9635;52.078;8.648;2023-03-12T07:51:52;99816.69;;;1.33;62.26
19005;BME280;9635;52.078;8.648;2023-03-12T07:56:55;99805.47;;;1.28;62.29
19005;BME280;9635;52.078;8.648;2023-03-12T08:02:00;99796.66;;;1.45;62.63
19005;BME280;9635;52.078;8.648;2023-03-12T08:07:03;99783.41;;;1.62;61.38
19005;BME280;9635;52.078;8.648;2023-03-12T08:12:09;99790.34;;;1.97;60.52
19005;BME280;9635;52.078;8.648;2023-03-12T08:17:14;99782.13;;;1.85;60.67
19005;BME280;9635;52.078;8.648;2023-03-12T08:22:17;99766.94;;;2.05;60.46
19005;BME280;9635;52.078;8.648;2023-03-12T08:27:19;99755.56;;;2.03;60.36
19005;BME280;9635;52.078;8.648;2023-03-12T08:32:24;99759.91;;;2.35;59.90
19005;BME280;9635;52.078;8.648;2023-03-12T08:37:27;99771.97;;;2.57;59.39
19005;BME280;9635;52.078;8.648;2023-03-12T08:42:30;99773.94;;;2.69;59.34
19005;BME280;9635;52.078;8.648;2023-03-12T08:47:35;99770.88;;;2.61;59.08
19005;BME280;9635;52.078;8.648;2023-03-12T08:52:38;99766.06;;;2.68;59.41
19005;BME280;9635;52.078;8.648;2023-03-12T08:57:41;99780.69;;;2.75;59.00
19005;BME280;9635;52.078;8.648;2023-03-12T09:02:45;99781.09;;;2.83;58.83
19005;BME280;9635;52.078;8.648;2023-03-12T09:07:48;99772.22;;;2.68;59.75
19005;BME280;9635;52.078;8.648;2023-03-12T09:12:51;99767.25;;;2.78;60.10
19005;BME280;9635;52.078;8.648;2023-03-12T09:17:55;99759.00;;;2.82;59.83
19005;BME280;9635;52.078;8.648;2023-03-12T09:22:58;99756.63;;;2.78;60.20
19005;BME280;9635;52.078;8.648;2023-03-12T09:28:01;99764.38;;;2.67;61.91
19005;BME280;9635;52.078;8.648;2023-03-12T09:33:05;99761.38;;;2.57;64.26
19005;BME280;9635;52.078;8.648;2023-03-12T09:38:12;99761.97;;;2.62;66.16
19005;BME280;9635;52.078;8.648;2023-03-12T09:43:20;99752.91;;;2.66;66.86
19005;BME280;9635;52.078;8.648;2023-03-12T09:48:31;99755.00;;;2.75;67.43
19005;BME280;9635;52.078;8.648;2023-03-12T09:53:39;99735.25;;;2.65;68.09
19005;BME280;9635;52.078;8.648;2023-03-12T09:58:48;99730.06;;;2.48;69.14
19005;BME280;9635;52.078;8.648;2023-03-12T10:04:18;99743.63;;;2.11;70.42
19005;BME280;9635;52.078;8.648;2023-03-12T10:09:36;99722.06;;;2.17;71.86
19005;BME280;9635;52.078;8.648;2023-03-12T10:14:48;99713.84;;;2.22;72.67
19005;BME280;9635;52.078;8.648;2023-03-12T10:25:23;99696.19;;;2.53;73.31
19005;BME280;9635;52.078;8.648;2023-03-12T10:30:29;99699.38;;;1.98;73.67
19005;BME280;9635;52.078;8.648;2023-03-12T10:35:35;99688.66;;;1.83;75.22
19005;BME280;9635;52.078;8.648;2023-03-12T10:40:39;99695.75;;;1.83;76.05
19005;BME280;9635;52.078;8.648;2023-03-12T10:45:46;99696.00;;;1.94;77.19
19005;BME280;9635;52.078;8.648;2023-03-12T10:51:03;99702.50;;;2.04;78.02
19005;BME280;9635;52.078;8.648;2023-03-12T10:56:08;99679.50;;;2.05;78.76
19005;BME280;9635;52.078;8.648;2023-03-12T11:01:18;99688.16;;;1.92;78.98
19005;BME280;9635;52.078;8.648;2023-03-12T11:06:25;99692.53;;;1.93;79.60
19005;BME280;9635;52.078;8.648;2023-03-12T11:11:36;99689.19;;;2.06;80.24
19005;BME280;9635;52.078;8.648;2023-03-12T11:16:39;99689.44;;;2.01;81.17
19005;BME280;9635;52.078;8.648;2023-03-12T11:21:53;99653.69;;;2.08;81.75
19005;BME280;9635;52.078;8.648;2023-03-12T11:27:01;99647.69;;;2.21;81.94
19005;BME280;9635;52.078;8.648;2023-03-12T11:32:14;99634.28;;;2.24;82.24
19005;BME280;9635;52.078;8.648;2023-03-12T11:37:26;99652.00;;;2.07;82.84
19005;BME280;9635;52.078;8.648;2023-03-12T11:42:43;99645.66;;;2.10;83.18
19005;BME280;9635;52.078;8.648;2023-03-12T11:47:59;99648.41;;;2.08;83.45
19005;BME280;9635;52.078;8.648;2023-03-12T11:58:47;99638.56;;;2.10;83.77
19005;BME280;9635;52.078;8.648;2023-03-12T12:04:03;99635.84;;;2.42;84.04
19005;BME280;9635;52.078;8.648;2023-03-12T12:09:21;99620.19;;;2.53;84.04
19005;BME280;9635;52.078;8.648;2023-03-12T12:14:42;99621.75;;;2.42;84.27
19005;BME280;9635;52.078;8.648;2023-03-12T12:19:59;99616.25;;;2.45;84.32
19005;BME280;9635;52.078;8.648;2023-03-12T12:25:24;99583.72;;;2.71;84.85
19005;BME280;9635;52.078;8.648;2023-03-12T12:30:43;99590.66;;;2.74;84.89
19005;BME280;9635;52.078;8.648;2023-03-12T12:35:49;99582.88;;;2.56;85.83
19005;BME280;9635;52.078;8.648;2023-03-12T12:40:55;99587.91;;;2.75;85.74
19005;BME280;9635;52.078;8.648;2023-03-12T12:46:04;99570.97;;;2.64;86.98
19005;BME280;9635;52.078;8.648;2023-03-12T12:51:09;99581.97;;;2.86;86.83
19005;BME280;9635;52.078;8.648;2023-03-12T12:56:19;99569.69;;;3.26;85.61
19005;BME280;9635;52.078;8.648;2023-03-12T13:01:25;99567.13;;;3.25;86.34
19005;BME280;9635;52.078;8.648;2023-03-12T13:06:55;99564.56;;;3.23;86.96
19005;BME280;9635;52.078;8.648;2023-03-12T13:12:05;99560.19;;;3.37;86.87
19005;BME280;9635;52.078;8.648;2023-03-12T13:17:21;99550.88;;;3.44;87.41
19005;BME280;9635;52.078;8.648;2023-03-12T13:22:53;99554.47;;;3.70;87.44
19005;BME280;9635;52.078;8.648;2023-03-12T13:28:26;99539.44;;;3.83;86.87
19005;BME280;9635;52.078;8.648;2023-03-12T13:33:41;99552.69;;;3.70;89.21
19005;BME280;9635;52.078;8.648;2023-03-12T13:38:54;99550.19;;;3.94;89.08
19005;BME280;9635;52.078;8.648;2023-03-12T13:43:58;99545.69;;;4.09;88.21
19005;BME280;9635;52.078;8.648;2023-03-12T13:49:05;99537.22;;;4.43;88.36
19005;BME280;9635;52.078;8.648;2023-03-12T13:54:15;99534.22;;;4.34;89.87
19005;BME280;9635;52.078;8.648;2023-03-12T13:59:22;99531.44;;;4.49;89.82
19005;BME280;9635;52.078;8.648;2023-03-12T14:04:31;99528.47;;;4.66;89.35
19005;BME280;9635;52.078;8.648;2023-03-12T14:09:39;99521.84;;;4.84;89.10
19005;BME280;9635;52.078;8.648;2023-03-12T14:15:16;99513.78;;;4.86;89.11
19005;BME280;9635;52.078;8.648;2023-03-12T14:20:23;99518.25;;;4.73;91.34
19005;BME280;9635;52.078;8.648;2023-03-12T14:25:32;99538.13;;;4.80;91.00
19005;BME280;9635;52.078;8.648;2023-03-12T14:30:43;99553.34;;;4.91;90.17
19005;BME280;9635;52.078;8.648;2023-03-12T14:35:53;99546.47;;;5.38;88.42
19005;BME280;9635;52.078;8.648;2023-03-12T14:41:02;99556.19;;;5.26;88.95
19005;BME280;9635;52.078;8.648;2023-03-12T14:46:14;99555.72;;;5.08;90.54
19005;BME280;9635;52.078;8.648;2023-03-12T14:51:22;99548.28;;;5.37;89.75
19005;BME280;9635;52.078;8.648;2023-03-12T14:56:26;99548.75;;;5.55;88.86
19005;BME280;9635;52.078;8.648;2023-03-12T15:01:33;99537.63;;;5.61;89.77
19005;BME280;9635;52.078;8.648;2023-03-12T15:06:43;99534.09;;;5.37;91.23
19005;BME280;9635;52.078;8.648;2023-03-12T15:11:51;99533.09;;;5.75;89.89
19005;BME280;9635;52.078;8.648;2023-03-12T15:16:57;99533.38;;;5.83;90.20
19005;BME280;9635;52.078;8.648;2023-03-12T15:22:02;99530.09;;;5.79;91.72
19005;BME280;9635;52.078;8.648;2023-03-12T15:27:28;99515.28;;;5.99;90.64
19005;BME280;9635;52.078;8.648;2023-03-12T15:32:33;99511.31;;;6.16;90.60
19005;BME280;9635;52.078;8.648;2023-03-12T15:37:36;99504.72;;;5.98;92.86
19005;BME280;9635;52.078;8.648;2023-03-12T15:42:43;99507.91;;;6.14;92.78
19005;BME280;9635;52.078;8.648;2023-03-12T15:47:50;99512.69;;;6.33;91.70
19005;BME280;9635;52.078;8.648;2023-03-12T15:52:59;99512.59;;;6.46;91.87
19005;BME280;9635;52.078;8.648;2023-03-12T15:58:23;99515.50;;;6.54;91.05
19005;BME280;9635;52.078;8.648;2023-03-12T16:03:28;99515.41;;;6.67;90.00
19005;BME280;9635;52.078;8.648;2023-03-12T16:08:35;99512.63;;;6.91;89.57
19005;BME280;9635;52.078;8.648;2023-03-12T16:13:39;99511.19;;;6.98;89.03
19005;BME280;9635;52.078;8.648;2023-03-12T16:18:45;99511.06;;;6.88;90.15
19005;BME280;9635;52.078;8.648;2023-03-12T16:23:48;99508.75;;;7.06;89.32
19005;BME280;9635;52.078;8.648;2023-03-12T16:28:51;99504.63;;;7.02;88.78
19005;BME280;9635;52.078;8.648;2023-03-12T16:33:55;99504.97;;;7.20;88.08
19005;BME280;9635;52.078;8.648;2023-03-12T16:38:58;99506.94;;;7.06;87.75
19005;BME280;9635;52.078;8.648;2023-03-12T16:44:01;99508.25;;;7.12;88.06
19005;BME280;9635;52.078;8.648;2023-03-12T16:49:08;99522.72;;;6.98;88.77
19005;BME280;9635;52.078;8.648;2023-03-12T16:54:13;99521.13;;;7.07;88.50
19005;BME280;9635;52.078;8.648;2023-03-12T16:59:22;99514.59;;;7.00;88.40
19005;BME280;9635;52.078;8.648;2023-03-12T17:04:27;99537.03;;;6.97;88.21
19005;BME280;9635;52.078;8.648;2023-03-12T17:09:30;99534.13;;;7.12;87.20
19005;BME280;9635;52.078;8.648;2023-03-12T17:14:33;99538.22;;;7.16;87.27
19005;BME280;9635;52.078;8.648;2023-03-12T17:19:37;99530.38;;;6.92;87.95
19005;BME280;9635;52.078;8.648;2023-03-12T17:24:40;99534.25;;;6.88;87.34
19005;BME280;9635;52.078;8.648;2023-03-12T17:29:43;99537.53;;;7.14;85.92
19005;BME280;9635;52.078;8.648;2023-03-12T17:34:53;99534.22;;;7.10;85.74
19005;BME280;9635;52.078;8.648;2023-03-12T17:39:56;99536.03;;;7.21;84.72
19005;BME280;9635;52.078;8.648;2023-03-12T17:45:02;99542.94;;;7.35;84.18
19005;BME280;9635;52.078;8.648;2023-03-12T17:50:08;99541.38;;;7.21;84.39
19005;BME280;9635;52.078;8.648;2023-03-12T17:55:11;99539.81;;;7.30;83.47
19005;BME280;9635;52.078;8.648;2023-03-12T18:00:15;99552.78;;;7.34;83.53
19005;BME280;9635;52.078;8.648;2023-03-12T18:05:19;99559.09;;;7.33;83.41
19005;BME280;9635;52.078;8.648;2023-03-12T18:10:22;99570.75;;;7.21;84.01
19005;BME280;9635;52.078;8.648;2023-03-12T18:15:25;99581.44;;;7.21;83.69
19005;BME280;9635;52.078;8.648;2023-03-12T18:20:29;99587.88;;;7.18;83.21
19005;BME280;9635;52.078;8.648;2023-03-12T18:25:40;99583.88;;;7.35;82.98
19005;BME280;9635;52.078;8.648;2023-03-12T18:30:44;99584.47;;;7.50;82.62
19005;BME280;9635;52.078;8.648;2023-03-12T18:35:48;99574.38;;;7.42;82.73
19005;BME280;9635;52.078;8.648;2023-03-12T18:41:01;99573.78;;;7.39;82.91
19005;BME280;9635;52.078;8.648;2023-03-12T18:46:05;99572.53;;;7.54;82.68
19005;BME280;9635;52.078;8.648;2023-03-12T18:51:10;99574.03;;;7.36;83.34
19005;BME280;9635;52.078;8.648;2023-03-12T18:56:13;99569.41;;;7.49;82.73
19005;BME280;9635;52.078;8.648;2023-03-12T19:01:16;99580.78;;;7.51;82.42
19005;BME280;9635;52.078;8.648;2023-03-12T19:06:20;99579.97;;;7.39;83.24
19005;BME280;9635;52.078;8.648;2023-03-12T19:11:23;99580.31;;;7.46;82.61
19005;BME280;9635;52.078;8.648;2023-03-12T19:16:26;99591.34;;;7.64;82.15
19005;BME280;9635;52.078;8.648;2023-03-12T19:21:31;99564.84;;;7.72;82.09
19005;BME280;9635;52.078;8.648;2023-03-12T19:26:34;99558.41;;;7.75;82.40
19005;BME280;9635;52.078;8.648;2023-03-12T19:31:36;99554.38;;;7.80;82.31
19005;BME280;9635;52.078;8.648;2023-03-12T19:36:41;99545.75;;;7.77;82.76
19005;BME280;9635;52.078;8.648;2023-03-12T19:41:43;99543.56;;;7.70;83.30
19005;BME280;9635;52.078;8.648;2023-03-12T19:46:46;99543.72;;;7.69;83.31
19005;BME280;9635;52.078;8.648;2023-03-12T19:51:50;99540.06;;;7.70;82.46
19005;BME280;9635;52.078;8.648;2023-03-12T19:56:53;99543.34;;;7.62;82.25
19005;BME280;9635;52.078;8.648;2023-03-12T20:01:56;99532.94;;;7.48;81.65
19005;BME280;9635;52.078;8.648;2023-03-12T20:07:02;99545.22;;;7.50;81.06
19005;BME280;9635;52.078;8.648;2023-03-12T20:12:05;99551.28;;;7.53;80.90
19005;BME280;9635;52.078;8.648;2023-03-12T20:17:08;99546.81;;;7.85;79.57
19005;BME280;9635;52.078;8.648;2023-03-12T20:22:14;99548.69;;;7.62;79.27
19005;BME280;9635;52.078;8.648;2023-03-12T20:27:17;99558.84;;;7.47;78.23
19005;BME280;9635;52.078;8.648;2023-03-12T20:32:19;99539.69;;;7.75;77.70
19005;BME280;9635;52.078;8.648;2023-03-12T20:37:23;99549.66;;;7.72;76.50
19005;BME280;9635;52.078;8.648;2023-03-12T20:42:26;99540.63;;;7.85;75.74
19005;BME280;9635;52.078;8.648;2023-03-12T20:47:29;99542.38;;;7.75;75.73
19005;BME280;9635;52.078;8.648;2023-03-12T20:52:36;99529.25;;;7.71;75.71
19005;BME280;9635;52.078;8.648;2023-03-12T20:57:39;99522.75;;;7.85;75.31
19005;BME280;9635;52.078;8.648;2023-03-12T21:02:42;99530.63;;;7.98;75.15
19005;BME280;9635;52.078;8.648;2023-03-12T21:07:46;99521.44;;;7.80;74.93
19005;BME280;9635;52.078;8.648;2023-03-12T21:12:49;99515.06;;;7.92;74.68
19005;BME280;9635;52.078;8.648;2023-03-12T21:17:51;99508.28;;;7.88;74.14
19005;BME280;9635;52.078;8.648;2023-03-12T21:22:56;99510.13;;;7.76;74.59
19005;BME280;9635;52.078;8.648;2023-03-12T21:27:59;99504.50;;;7.58;74.81
19005;BME280;9635;52.078;8.648;2023-03-12T21:33:02;99499.06;;;7.81;74.61
19005;BME280;9635;52.078;8.648;2023-03-12T21:38:06;99499.75;;;7.62;75.09
19005;BME280;9635;52.078;8.648;2023-03-12T21:43:09;99493.94;;;7.89;74.54
19005;BME280;9635;52.078;8.648;2023-03-12T21:48:12;99488.78;;;7.65;74.66
19005;BME280;9635;52.078;8.648;2023-03-12T21:53:16;99485.31;;;7.53;74.97
19005;BME280;9635;52.078;8.648;2023-03-12T21:58:26;99476.84;;;7.80;75.06
19005;BME280;9635;52.078;8.648;2023-03-12T22:03:29;99466.59;;;8.06;74.80
19005;BME280;9635;52.078;8.648;2023-03-12T22:08:33;99469.03;;;7.88;74.73
19005;BME280;9635;52.078;8.648;2023-03-12T22:13:36;99459.50;;;7.95;74.89
19005;BME280;9635;52.078;8.648;2023-03-12T22:18:41;99451.22;;;7.78;74.32
19005;BME280;9635;52.078;8.648;2023-03-12T22:23:46;99436.94;;;8.09;74.86
19005;BME280;9635;52.078;8.648;2023-03-12T22:28:53;99428.69;;;8.22;73.96
19005;BME280;9635;52.078;8.648;2023-03-12T22:33:56;99435.50;;;8.05;74.07
19005;BME280;9635;52.078;8.648;2023-03-12T22:39:00;99424.34;;;8.31;74.21
19005;BME280;9635;52.078;8.648;2023-03-12T22:44:04;99413.44;;;8.13;73.70
19005;BME280;9635;52.078;8.648;2023-03-12T22:49:07;99413.06;;;8.17;73.93
19005;BME280;9635;52.078;8.648;2023-03-12T22:54:12;99406.44;;;8.22;73.25
19005;BME280;9635;52.078;8.648;2023-03-12T22:59:14;99400.72;;;8.36;73.21
19005;BME280;9635;52.078;8.648;2023-03-12T23:04:17;99390.94;;;8.15;73.42
19005;BME280;9635;52.078;8.648;2023-03-12T23:09:21;99381.63;;;8.10;73.06
19005;BME280;9635;52.078;8.648;2023-03-12T23:14:24;99370.72;;;8.32;72.80
19005;BME280;9635;52.078;8.648;2023-03-12T23:19:30;99373.31;;;8.13;72.89
19005;BME280;9635;52.078;8.648;2023-03-12T23:24:34;99364.94;;;8.27;73.10
19005;BME280;9635;52.078;8.648;2023-03-12T23:29:37;99351.53;;;8.17;72.72
19005;BME280;9635;52.078;8.648;2023-03-12T23:34:40;99339.28;;;8.25;72.07
19005;BME280;9635;52.078;8.648;2023-03-12T23:39:44;99334.31;;;8.10;72.18
19005;BME280;9635;52.078;8.648;2023-03-12T23:44:55;99337.78;;;8.32;71.79
19005;BME280;9635;52.078;8.648;2023-03-12T23:49:58;99323.84;;;8.28;71.62
19005;BME280;9635;52.078;8.648;2023-03-12T23:55:03;99318.00;;;8.13;71.37
